createdAt,value
2022-11-07T00:01:17.434Z,52.20
2022-11-07T00:03:44.308Z,52.20
2022-11-07T00:06:11.349Z,52.10
2022-11-07T00:08:38.259Z,52.10
2022-11-07T00:11:05.555Z,52.20
2022-11-07T00:13:32.846Z,52.10
2022-11-07T00:16:02.340Z,52.20
2022-11-07T00:18:29.439Z,52.20
2022-11-07T00:20:56.267Z,52.10
2022-11-07T00:23:23.072Z,52.10
2022-11-07T00:25:49.903Z,52.20
2022-11-07T00:28:16.726Z,52.10
2022-11-07T00:30:43.792Z,52.80
2022-11-07T00:33:10.645Z,52.10
2022-11-07T00:35:43.835Z,52.20
2022-11-07T00:38:10.688Z,52.10
2022-11-07T00:40:37.498Z,52.20
2022-11-07T00:43:04.301Z,52.20
2022-11-07T00:45:31.118Z,52.10
2022-11-07T00:47:57.914Z,52.80
2022-11-07T00:50:24.784Z,52.10
2022-11-07T00:52:51.626Z,52.30
2022-11-07T00:55:18.455Z,52.30
2022-11-07T00:57:45.267Z,52.20
2022-11-07T01:00:12.785Z,52.20
2022-11-07T01:02:39.715Z,52.10
2022-11-07T01:05:12.959Z,52.20
2022-11-07T01:07:41.156Z,52.20
2022-11-07T01:10:08.310Z,52.20
2022-11-07T01:12:35.881Z,52.20
2022-11-07T01:15:04.079Z,52.20
2022-11-07T01:17:30.943Z,52.20
2022-11-07T01:19:57.794Z,52.20
2022-11-07T01:22:24.605Z,52.30
2022-11-07T01:24:51.511Z,52.30
2022-11-07T01:27:18.356Z,52.20
2022-11-07T01:29:45.170Z,52.20
2022-11-07T01:32:12.010Z,52.20
2022-11-07T01:34:38.814Z,52.20
2022-11-07T01:37:05.669Z,52.20
2022-11-07T01:39:32.477Z,52.20
2022-11-07T01:41:59.440Z,52.10
2022-11-07T01:44:26.192Z,52.10
2022-11-07T01:46:55.543Z,52.10
2022-11-07T01:49:31.428Z,52.00
2022-11-07T01:52:00.476Z,51.90
2022-11-07T01:54:34.366Z,52.10
2022-11-07T01:57:05.202Z,52.00
2022-11-07T01:59:33.101Z,52.00
2022-11-07T02:02:00.201Z,52.00
2022-11-07T02:04:30.009Z,51.90
2022-11-07T02:07:07.125Z,51.90
2022-11-07T02:09:34.276Z,51.80
2022-11-07T02:12:01.790Z,51.90
2022-11-07T02:14:29.708Z,51.90
2022-11-07T02:16:56.914Z,51.90
2022-11-07T02:19:36.446Z,51.90
2022-11-07T02:22:23.068Z,51.80
2022-11-07T02:24:52.474Z,51.80
2022-11-07T02:27:21.209Z,51.90
2022-11-07T02:29:52.226Z,51.80
2022-11-07T02:32:19.137Z,51.90
2022-11-07T02:34:45.999Z,51.90
2022-11-07T02:37:24.401Z,51.80
2022-11-07T02:39:51.415Z,51.70
2022-11-07T02:42:18.295Z,51.80
2022-11-07T02:44:46.550Z,51.80
2022-11-07T02:47:13.409Z,51.80
2022-11-07T02:49:41.068Z,51.80
2022-11-07T02:52:07.835Z,51.80
2022-11-07T02:54:34.837Z,51.70
2022-11-07T02:57:01.776Z,51.70
2022-11-07T02:59:28.598Z,51.70
2022-11-07T03:01:55.571Z,51.70
2022-11-07T03:04:24.061Z,51.70
2022-11-07T03:06:51.493Z,51.80
2022-11-07T03:09:18.269Z,51.80
2022-11-07T03:11:45.143Z,51.80
2022-11-07T03:14:11.952Z,51.80
2022-11-07T03:16:38.808Z,51.80
2022-11-07T03:19:05.628Z,51.80
2022-11-07T03:21:32.444Z,51.70
2022-11-07T03:23:59.257Z,51.80
2022-11-07T03:26:26.096Z,51.70
2022-11-07T03:28:52.884Z,51.70
2022-11-07T03:31:19.738Z,51.70
2022-11-07T03:33:46.549Z,51.80
2022-11-07T03:36:13.384Z,51.80
2022-11-07T03:38:40.202Z,51.80
2022-11-07T03:41:07.102Z,51.80
2022-11-07T03:43:33.954Z,51.80
2022-11-07T03:46:00.778Z,51.80
2022-11-07T03:48:27.582Z,51.80
2022-11-07T03:50:54.455Z,51.80
2022-11-07T03:53:25.553Z,51.80
2022-11-07T03:55:55.171Z,51.80
2022-11-07T03:58:22.794Z,51.80
2022-11-07T04:00:49.800Z,51.80
2022-11-07T04:03:16.958Z,51.90
2022-11-07T04:05:44.978Z,51.80
2022-11-07T04:08:11.830Z,51.90
2022-11-07T04:10:38.634Z,51.90
2022-11-07T04:13:23.949Z,51.90
2022-11-07T04:16:13.588Z,51.80
2022-11-07T04:18:43.284Z,51.90
2022-11-07T04:21:10.083Z,52.00
2022-11-07T04:23:37.352Z,52.00
2022-11-07T04:26:22.914Z,52.00
2022-11-07T04:28:49.707Z,52.00
2022-11-07T04:31:16.526Z,52.00
2022-11-07T04:33:43.333Z,52.00
2022-11-07T04:36:10.304Z,52.00
2022-11-07T04:38:37.184Z,52.00
2022-11-07T04:41:04.834Z,52.00
2022-11-07T04:43:31.759Z,52.00
2022-11-07T04:45:58.613Z,52.00
2022-11-07T04:48:25.394Z,52.00
2022-11-07T04:50:52.208Z,52.00
2022-11-07T04:53:19.150Z,52.00
2022-11-07T04:55:46.748Z,52.00
2022-11-07T04:58:13.587Z,51.90
2022-11-07T05:00:40.376Z,52.00
2022-11-07T05:03:07.243Z,52.00
2022-11-07T05:05:34.175Z,52.00
2022-11-07T05:08:01.015Z,52.00
2022-11-07T05:10:29.020Z,52.00
2022-11-07T05:12:56.574Z,52.00
2022-11-07T05:15:23.815Z,51.90
2022-11-07T05:17:50.726Z,52.00
2022-11-07T05:20:20.660Z,52.00
2022-11-07T05:23:05.815Z,52.00
2022-11-07T05:25:32.612Z,52.70
2022-11-07T05:27:59.408Z,52.00
2022-11-07T05:30:26.249Z,52.00
2022-11-07T05:32:53.070Z,52.00
2022-11-07T05:35:19.844Z,52.00
2022-11-07T05:37:48.583Z,52.00
2022-11-07T05:40:15.477Z,52.00
2022-11-07T05:42:42.298Z,52.00
2022-11-07T05:45:09.583Z,52.00
2022-11-07T05:47:36.416Z,52.00
2022-11-07T05:50:03.347Z,52.00
2022-11-07T05:52:30.166Z,52.10
2022-11-07T05:54:56.964Z,52.00
2022-11-07T05:57:23.840Z,52.00
2022-11-07T05:59:50.660Z,52.00
2022-11-07T06:02:17.566Z,52.00
2022-11-07T06:04:44.468Z,52.00
2022-11-07T06:07:11.296Z,52.00
2022-11-07T06:09:38.103Z,52.00
2022-11-07T06:12:05.217Z,52.00
2022-11-07T06:14:32.003Z,52.00
2022-11-07T06:16:58.815Z,52.00
2022-11-07T06:19:25.659Z,52.00
2022-11-07T06:21:52.504Z,52.00
2022-11-07T06:24:20.229Z,52.10
2022-11-07T06:26:47.063Z,52.00
2022-11-07T06:29:13.991Z,52.60
2022-11-07T06:31:40.808Z,52.00
2022-11-07T06:34:07.678Z,52.10
2022-11-07T06:36:34.509Z,52.10
2022-11-07T06:39:01.325Z,52.00
2022-11-07T06:41:28.097Z,52.10
2022-11-07T06:43:54.951Z,52.10
2022-11-07T06:46:23.232Z,52.10
2022-11-07T06:48:50.056Z,52.10
2022-11-07T06:51:17.133Z,52.10
2022-11-07T06:53:44.050Z,52.20
2022-11-07T06:56:15.076Z,52.10
2022-11-07T06:58:42.145Z,52.10
2022-11-07T07:01:13.534Z,52.20
2022-11-07T07:03:41.339Z,52.10
2022-11-07T07:06:12.049Z,52.10
2022-11-07T07:08:39.041Z,52.10
2022-11-07T07:11:08.549Z,52.10
2022-11-07T07:13:35.547Z,52.10
2022-11-07T07:16:02.437Z,52.20
2022-11-07T07:18:29.708Z,52.20
2022-11-07T07:21:07.049Z,52.20
2022-11-07T07:23:34.759Z,52.20
2022-11-07T07:26:02.490Z,52.30
2022-11-07T07:28:29.714Z,52.30
2022-11-07T07:31:17.677Z,52.20
2022-11-07T07:33:46.105Z,52.20
2022-11-07T07:36:17.825Z,52.50
2022-11-07T07:38:48.237Z,52.60
2022-11-07T07:41:15.113Z,52.70
2022-11-07T07:43:42.036Z,52.80
2022-11-07T07:46:09.393Z,52.80
2022-11-07T07:48:36.731Z,52.80
2022-11-07T07:51:03.628Z,53.00
2022-11-07T07:53:30.505Z,53.00
2022-11-07T07:55:58.246Z,53.10
2022-11-07T07:58:26.367Z,53.10
2022-11-07T08:00:54.385Z,53.10
2022-11-07T08:03:21.367Z,53.20
2022-11-07T08:05:56.725Z,53.20
2022-11-07T08:08:24.547Z,53.20
2022-11-07T08:10:54.429Z,53.30
2022-11-07T08:13:22.843Z,53.30
2022-11-07T08:15:49.939Z,53.40
2022-11-07T08:18:18.075Z,53.40
2022-11-07T08:20:44.941Z,53.40
2022-11-07T08:23:16.334Z,53.40
2022-11-07T08:25:49.990Z,53.30
2022-11-07T08:28:17.002Z,53.50
2022-11-07T08:30:43.806Z,53.60
2022-11-07T08:33:10.758Z,53.60
2022-11-07T08:35:42.257Z,53.60
2022-11-07T08:38:09.697Z,53.70
2022-11-07T08:40:36.552Z,53.80
2022-11-07T08:43:03.383Z,53.80
2022-11-07T08:45:30.258Z,53.90
2022-11-07T08:47:58.737Z,53.90
2022-11-07T08:50:26.296Z,53.90
2022-11-07T08:52:55.890Z,53.90
2022-11-07T08:55:26.635Z,53.90
2022-11-07T08:58:01.025Z,54.00
2022-11-07T09:00:28.451Z,53.90
2022-11-07T09:05:42.277Z,54.30
2022-11-07T09:08:09.108Z,54.90
2022-11-07T09:10:36.020Z,54.50
2022-11-07T09:13:02.934Z,54.60
2022-11-07T09:15:29.918Z,54.70
2022-11-07T09:18:03.177Z,54.60
2022-11-07T09:20:30.059Z,54.70
2022-11-07T09:22:57.645Z,54.70
2022-11-07T09:25:25.104Z,54.80
2022-11-07T09:27:52.226Z,54.70
2022-11-07T09:30:20.432Z,54.70
2022-11-07T09:32:47.471Z,54.80
2022-11-07T09:35:14.889Z,54.80
2022-11-07T09:37:42.628Z,54.80
2022-11-07T09:40:29.462Z,54.80
2022-11-07T09:43:22.125Z,54.90
2022-11-07T09:46:04.210Z,54.70
2022-11-07T09:48:42.621Z,54.80
2022-11-07T09:51:15.336Z,54.90
2022-11-07T09:53:47.984Z,54.90
2022-11-07T09:56:15.227Z,54.80
2022-11-07T09:58:51.505Z,55.00
2022-11-07T10:01:19.367Z,54.80
2022-11-07T10:04:18.232Z,54.80
2022-11-07T10:06:38.287Z,55.50
2022-11-07T10:09:33.805Z,54.90
2022-11-07T10:12:04.166Z,54.80
2022-11-07T10:14:41.568Z,55.30
2022-11-07T10:17:20.273Z,55.20
2022-11-07T10:20:25.115Z,55.10
2022-11-07T10:23:07.427Z,55.10
2022-11-07T10:25:56.853Z,55.10
2022-11-07T10:28:27.112Z,55.30
2022-11-07T10:30:55.859Z,55.40
2022-11-07T10:33:39.898Z,55.30
2022-11-07T10:36:28.042Z,55.20
2022-11-07T10:38:55.299Z,55.10
2022-11-07T10:41:24.834Z,55.30
2022-11-07T10:44:21.882Z,55.30
2022-11-07T10:46:51.538Z,55.10
2022-11-07T10:49:30.821Z,55.50
2022-11-07T10:52:18.104Z,55.40
2022-11-07T10:54:45.118Z,55.10
2022-11-07T10:57:16.447Z,55.30
2022-11-07T10:59:52.360Z,55.70
2022-11-07T11:02:32.529Z,56.70
2022-11-07T11:05:05.172Z,56.80
2022-11-07T11:07:39.996Z,57.00
2022-11-07T11:10:20.608Z,57.30
2022-11-07T11:12:48.310Z,57.30
2022-11-07T11:15:19.269Z,57.20
2022-11-07T11:17:47.184Z,57.00
2022-11-07T11:20:32.881Z,56.80
2022-11-07T11:23:00.888Z,56.50
2022-11-07T11:25:27.849Z,56.60
2022-11-07T11:28:07.375Z,56.40
2022-11-07T11:30:36.299Z,56.30
2022-11-07T11:33:13.661Z,56.40
2022-11-07T11:35:47.877Z,56.30
2022-11-07T11:38:25.186Z,56.40
2022-11-07T11:41:04.574Z,57.00
2022-11-07T11:43:41.871Z,56.30
2022-11-07T11:46:14.319Z,56.40
2022-11-07T11:48:51.796Z,56.20
2022-11-07T11:52:10.945Z,56.20
2022-11-07T11:54:37.764Z,56.00
2022-11-07T11:57:09.769Z,56.20
2022-11-07T11:59:48.501Z,56.30
2022-11-07T12:02:47.485Z,56.50
2022-11-07T12:05:17.425Z,56.30
2022-11-07T12:08:05.563Z,56.50
2022-11-07T12:10:49.278Z,56.80
2022-11-07T12:13:33.334Z,56.60
2022-11-07T12:16:12.574Z,56.30
2022-11-07T12:18:41.456Z,56.00
2022-11-07T12:21:32.761Z,56.10
2022-11-07T12:24:26.114Z,56.10
2022-11-07T12:27:27.145Z,56.00
2022-11-07T12:30:18.371Z,55.80
2022-11-07T12:33:09.879Z,55.70
2022-11-07T12:35:56.536Z,55.70
2022-11-07T12:38:57.174Z,55.70
2022-11-07T12:41:39.032Z,55.70
2022-11-07T12:44:35.151Z,55.80
2022-11-07T12:47:16.716Z,55.40
2022-11-07T12:49:49.743Z,55.60
2022-11-07T12:52:16.561Z,55.50
2022-11-07T12:54:55.405Z,55.40
2022-11-07T12:57:25.323Z,55.30
2022-11-07T13:00:06.599Z,55.20
2022-11-07T13:03:14.749Z,55.10
2022-11-07T13:06:00.089Z,54.90
2022-11-07T13:08:48.804Z,55.20
2022-11-07T13:11:27.946Z,55.10
2022-11-07T13:13:59.399Z,55.10
2022-11-07T13:16:32.212Z,55.20
2022-11-07T13:19:25.355Z,55.50
2022-11-07T13:22:06.267Z,55.30
2022-11-07T13:24:37.534Z,55.50
2022-11-07T13:27:15.791Z,55.40
2022-11-07T13:29:44.849Z,55.30
2022-11-07T13:32:13.803Z,55.60
2022-11-07T13:34:53.979Z,55.60
2022-11-07T13:37:31.243Z,55.60
2022-11-07T13:40:25.460Z,55.50
2022-11-07T13:43:26.952Z,55.40
2022-11-07T13:45:58.960Z,55.60
2022-11-07T13:48:51.650Z,55.60
2022-11-07T13:51:18.981Z,55.60
2022-11-07T13:53:53.348Z,55.70
2022-11-07T13:56:47.295Z,55.60
2022-11-07T13:59:40.995Z,55.40
2022-11-07T14:02:27.798Z,55.60
2022-11-07T14:08:07.442Z,55.50
2022-11-07T14:10:39.882Z,55.50
2022-11-07T14:13:12.780Z,55.50
2022-11-07T14:15:48.022Z,55.60
2022-11-07T14:18:16.602Z,55.60
2022-11-07T14:20:52.845Z,55.70
2022-11-07T14:23:28.442Z,55.60
2022-11-07T14:26:15.717Z,55.80
2022-11-07T14:28:42.714Z,55.60
2022-11-07T14:31:24.949Z,55.70
2022-11-07T14:33:55.514Z,55.60
2022-11-07T14:36:23.350Z,55.70
2022-11-07T14:39:02.162Z,55.60
2022-11-07T14:41:29.398Z,55.40
2022-11-07T14:44:00.267Z,55.40
2022-11-07T14:46:27.157Z,55.30
2022-11-07T14:48:54.071Z,55.20
2022-11-07T14:51:26.437Z,55.20
2022-11-07T14:53:57.520Z,55.20
2022-11-07T14:56:35.750Z,55.20
2022-11-07T14:59:02.864Z,55.20
2022-11-07T15:01:33.898Z,55.40
2022-11-07T15:04:05.520Z,55.40
2022-11-07T15:06:40.470Z,55.50
2022-11-07T15:09:08.236Z,55.60
2022-11-07T15:11:40.151Z,55.70
2022-11-07T15:14:22.410Z,56.10
2022-11-07T15:16:50.262Z,56.10
2022-11-07T15:19:22.414Z,56.10
2022-11-07T15:21:57.912Z,56.10
2022-11-07T15:24:42.327Z,56.30
2022-11-07T15:27:32.149Z,56.70
2022-11-07T15:30:01.047Z,56.80
2022-11-07T15:32:42.525Z,57.10
2022-11-07T15:35:42.482Z,57.00
2022-11-07T15:38:05.143Z,57.30
2022-11-07T15:40:32.348Z,57.30
2022-11-07T15:42:59.220Z,57.50
2022-11-07T15:45:26.138Z,57.60
2022-11-07T15:47:52.969Z,57.90
2022-11-07T15:50:22.067Z,58.20
2022-11-07T15:52:49.369Z,57.70
2022-11-07T15:55:19.428Z,57.70
2022-11-07T15:57:48.093Z,58.40
2022-11-07T16:00:16.565Z,58.10
2022-11-07T16:02:43.823Z,58.30
2022-11-07T16:05:11.818Z,58.40
2022-11-07T16:07:40.205Z,58.40
2022-11-07T16:10:22.843Z,58.10
2022-11-07T16:12:50.393Z,59.00
2022-11-07T16:15:19.262Z,59.10
2022-11-07T16:17:46.132Z,59.20
2022-11-07T16:20:18.537Z,59.70
2022-11-07T16:22:45.872Z,59.70
2022-11-07T16:25:20.312Z,60.80
2022-11-07T16:27:50.781Z,60.40
2022-11-07T16:30:18.292Z,61.20
2022-11-07T16:32:45.461Z,59.90
2022-11-07T16:35:12.568Z,60.50
2022-11-07T16:37:39.432Z,60.60
2022-11-07T16:40:08.541Z,61.50
2022-11-07T16:42:35.280Z,61.80
2022-11-07T16:45:02.297Z,61.30
2022-11-07T16:47:31.448Z,61.30
2022-11-07T16:49:58.471Z,61.00
2022-11-07T16:52:26.960Z,61.00
2022-11-07T16:54:53.929Z,60.90
2022-11-07T16:57:20.869Z,60.50
2022-11-07T16:59:47.896Z,60.50
2022-11-07T17:02:23.511Z,60.30
2022-11-07T17:04:51.918Z,60.30
2022-11-07T17:07:20.298Z,59.80
2022-11-07T17:09:47.471Z,59.70
2022-11-07T17:12:16.487Z,59.60
2022-11-07T17:14:43.375Z,59.60
2022-11-07T17:17:14.850Z,59.40
2022-11-07T17:19:41.839Z,59.30
2022-11-07T17:22:10.525Z,59.30
2022-11-07T17:24:37.376Z,59.10
2022-11-07T17:27:11.406Z,59.00
2022-11-07T17:29:39.267Z,58.90
2022-11-07T17:32:06.292Z,58.80
2022-11-07T17:34:33.161Z,58.70
2022-11-07T17:37:01.088Z,58.70
2022-11-07T17:39:27.937Z,58.70
2022-11-07T17:41:54.966Z,58.90
2022-11-07T17:44:21.797Z,58.70
2022-11-07T17:46:49.588Z,58.60
2022-11-07T17:49:18.590Z,58.60
2022-11-07T17:51:45.672Z,58.30
2022-11-07T17:54:13.629Z,58.30
2022-11-07T17:56:40.969Z,58.10
2022-11-07T17:59:12.425Z,58.00
2022-11-07T18:01:40.609Z,58.00
2022-11-07T18:04:09.162Z,57.90
2022-11-07T18:06:41.031Z,58.60
2022-11-07T18:09:11.279Z,57.80
2022-11-07T18:11:38.167Z,57.80
2022-11-07T18:14:04.971Z,57.70
2022-11-07T18:16:34.073Z,57.60
2022-11-07T18:19:01.267Z,57.60
2022-11-07T18:21:29.037Z,57.70
2022-11-07T18:23:56.095Z,57.90
2022-11-07T18:26:31.945Z,57.90
2022-11-07T18:29:06.801Z,57.70
2022-11-07T18:31:34.095Z,57.60
2022-11-07T18:34:04.180Z,57.60
2022-11-07T18:36:35.029Z,57.60
2022-11-07T18:39:07.228Z,57.60
2022-11-07T18:41:34.356Z,57.50
2022-11-07T18:44:04.807Z,57.40
2022-11-07T18:46:32.524Z,57.30
2022-11-07T18:48:59.912Z,57.30
2022-11-07T18:51:26.951Z,57.30
2022-11-07T18:53:54.531Z,57.20
2022-11-07T18:56:21.862Z,57.20
2022-11-07T18:58:48.711Z,57.20
2022-11-07T19:01:19.317Z,57.20
2022-11-07T19:03:47.024Z,57.20
2022-11-07T19:06:16.908Z,57.10
2022-11-07T19:08:44.992Z,57.10
2022-11-07T19:11:14.304Z,57.10
2022-11-07T19:13:43.229Z,57.10
2022-11-07T19:16:12.703Z,57.00
2022-11-07T19:18:39.759Z,57.00
2022-11-07T19:21:06.736Z,57.00
2022-11-07T19:23:37.098Z,57.00
2022-11-07T19:26:05.256Z,56.90
2022-11-07T19:28:32.537Z,56.90
2022-11-07T19:31:03.877Z,56.90
2022-11-07T19:33:30.920Z,56.80
2022-11-07T19:36:03.748Z,56.80
2022-11-07T19:38:31.269Z,56.80
2022-11-07T19:41:01.584Z,56.90
2022-11-07T19:43:28.464Z,56.80
2022-11-07T19:45:55.340Z,56.80
2022-11-07T19:48:22.200Z,56.70
2022-11-07T19:50:49.014Z,57.30
2022-11-07T19:53:16.270Z,56.80
2022-11-07T19:55:43.355Z,56.70
2022-11-07T19:58:10.196Z,56.80
2022-11-07T20:00:37.177Z,56.70
2022-11-07T20:03:04.085Z,57.00
2022-11-07T20:05:34.325Z,56.90
2022-11-07T20:08:04.992Z,56.90
2022-11-07T20:10:32.706Z,56.80
2022-11-07T20:12:59.576Z,57.40
2022-11-07T20:15:26.494Z,56.80
2022-11-07T20:17:53.304Z,56.70
2022-11-07T20:20:20.294Z,56.70
2022-11-07T20:22:47.577Z,56.60
2022-11-07T20:25:15.006Z,56.70
2022-11-07T20:27:42.019Z,56.60
2022-11-07T20:30:09.905Z,56.60
2022-11-07T20:32:36.832Z,56.60
2022-11-07T20:35:04.117Z,56.50
2022-11-07T20:37:30.936Z,56.50
2022-11-07T20:39:57.906Z,56.50
2022-11-07T20:42:24.713Z,56.50
2022-11-07T20:44:51.568Z,56.50
2022-11-07T20:47:18.439Z,56.40
2022-11-07T20:49:45.315Z,56.40
2022-11-07T20:52:12.155Z,56.40
2022-11-07T20:54:39.008Z,56.40
2022-11-07T20:57:05.991Z,56.40
2022-11-07T20:59:33.039Z,56.40
2022-11-07T21:02:03.424Z,56.50
2022-11-07T21:04:44.578Z,56.60
2022-11-07T21:07:19.941Z,56.60
2022-11-07T21:09:46.981Z,56.60
2022-11-07T21:12:13.957Z,56.70
2022-11-07T21:14:42.221Z,56.70
2022-11-07T21:17:09.730Z,56.80
2022-11-07T21:19:36.759Z,56.70
2022-11-07T21:22:04.306Z,56.70
2022-11-07T21:24:31.717Z,57.30
2022-11-07T21:26:59.472Z,56.60
2022-11-07T21:29:29.489Z,56.70
2022-11-07T21:31:57.155Z,56.60
2022-11-07T21:34:24.249Z,56.50
2022-11-07T21:36:51.097Z,56.50
2022-11-07T21:39:18.089Z,56.50
2022-11-07T21:41:45.009Z,56.50
2022-11-07T21:44:12.618Z,56.40
2022-11-07T21:46:39.595Z,56.50
2022-11-07T21:49:06.673Z,56.40
2022-11-07T21:51:34.837Z,56.40
2022-11-07T21:54:03.721Z,56.30
2022-11-07T21:56:32.710Z,56.30
2022-11-07T21:59:05.171Z,56.40
2022-11-07T22:01:35.514Z,56.40
2022-11-07T22:04:09.530Z,56.40
2022-11-07T22:06:41.960Z,56.30
2022-11-07T22:09:10.264Z,56.20
2022-11-07T22:11:37.410Z,56.30
2022-11-07T22:14:04.549Z,56.30
2022-11-07T22:16:31.821Z,56.30
2022-11-07T22:18:59.732Z,56.20
2022-11-07T22:21:26.768Z,56.20
2022-11-07T22:23:53.661Z,56.30
2022-11-07T22:26:22.988Z,56.90
2022-11-07T22:28:50.469Z,56.20
2022-11-07T22:31:23.002Z,56.20
2022-11-07T22:33:50.833Z,56.20
2022-11-07T22:36:18.398Z,56.20
2022-11-07T22:38:45.338Z,56.20
2022-11-07T22:41:18.287Z,56.20
2022-11-07T22:43:45.412Z,56.20
2022-11-07T22:46:14.735Z,56.30
2022-11-07T22:48:42.235Z,56.30
2022-11-07T22:51:11.837Z,56.20
2022-11-07T22:53:39.155Z,56.20
2022-11-07T22:56:18.828Z,56.20
2022-11-07T22:58:46.984Z,56.10
2022-11-07T23:01:20.104Z,56.20
2022-11-07T23:03:47.542Z,56.20
2022-11-07T23:06:15.311Z,56.20
2022-11-07T23:08:42.233Z,56.20
2022-11-07T23:11:44.765Z,56.20
2022-11-07T23:14:04.114Z,56.20
2022-11-07T23:16:34.671Z,56.20
2022-11-07T23:19:03.873Z,56.20
2022-11-07T23:21:31.440Z,56.20
2022-11-07T23:23:59.527Z,56.20
2022-11-07T23:26:33.497Z,56.40
2022-11-07T23:29:07.535Z,56.40
2022-11-07T23:31:37.566Z,56.30
2022-11-07T23:34:04.443Z,56.30
2022-11-07T23:36:31.256Z,56.20
2022-11-07T23:38:58.107Z,56.20
2022-11-07T23:41:24.975Z,56.20
2022-11-07T23:43:52.805Z,56.20
2022-11-07T23:46:38.370Z,56.10
2022-11-07T23:49:23.726Z,56.20
2022-11-07T23:51:50.535Z,56.20
2022-11-07T23:54:43.568Z,56.30
2022-11-07T23:57:10.409Z,56.30
2022-11-07T23:59:55.854Z,56.20
